sensor_id;sensor_type;location;lat;lon;timestamp;pressure;altitude;pressure_sealevel;temperature;humidity
6435;BME280;3250;42.694;23.278;2023-02-11T00:01:33;96503.94;;;-1.55;63.01
6435;BME280;3250;42.694;23.278;2023-02-11T00:03:59;96500.34;;;-1.52;63.12
6435;BME280;3250;42.694;23.278;2023-02-11T00:06:27;96509.34;;;-1.45;62.65
6435;BME280;3250;42.694;23.278;2023-02-11T00:08:53;96501.03;;;-1.36;62.01
6435;BME280;3250;42.694;23.278;2023-02-11T00:11:20;96501.63;;;-1.45;61.97
6435;BME280;3250;42.694;23.278;2023-02-11T00:13:46;96507.81;;;-1.47;61.77
6435;BME280;3250;42.694;23.278;2023-02-11T00:16:18;96507.81;;;-1.47;62.17
6435;BME280;3250;42.694;23.278;2023-02-11T00:18:44;96519.56;;;-1.56;62.56
6435;BME280;3250;42.694;23.278;2023-02-11T00:21:19;96505.00;;;-1.57;62.65
6435;BME280;3250;42.694;23.278;2023-02-11T00:23:45;96481.78;;;-1.71;62.17
6435;BME280;3250;42.694;23.278;2023-02-11T00:26:32;96506.19;;;-1.63;62.62
6435;BME280;3250;42.694;23.278;2023-02-11T00:28:58;96505.81;;;-1.57;61.99
6435;BME280;3250;42.694;23.278;2023-02-11T00:31:25;96501.56;;;-1.58;61.81
6435;BME280;3250;42.694;23.278;2023-02-11T00:33:51;96506.81;;;-1.59;62.01
6435;BME280;3250;42.694;23.278;2023-02-11T00:36:20;96499.81;;;-1.57;62.02
6435;BME280;3250;42.694;23.278;2023-02-11T00:38:47;96432.69;;;-1.98;62.18
6435;BME280;3250;42.694;23.278;2023-02-11T00:41:14;96485.53;;;-1.63;61.86
6435;BME280;3250;42.694;23.278;2023-02-11T00:43:40;96501.19;;;-1.52;61.62
6435;BME280;3250;42.694;23.278;2023-02-11T00:46:06;96503.66;;;-1.50;61.37
6435;BME280;3250;42.694;23.278;2023-02-11T00:48:33;96498.13;;;-1.44;60.81
6435;BME280;3250;42.694;23.278;2023-02-11T00:50:58;96492.34;;;-1.47;60.67
6435;BME280;3250;42.694;23.278;2023-02-11T00:53:24;96484.84;;;-1.52;61.17
6435;BME280;3250;42.694;23.278;2023-02-11T00:55:50;96487.25;;;-1.49;60.82
6435;BME280;3250;42.694;23.278;2023-02-11T00:58:15;96464.16;;;-1.65;60.46
6435;BME280;3250;42.694;23.278;2023-02-11T01:00:41;96492.41;;;-1.49;60.76
6435;BME280;3250;42.694;23.278;2023-02-11T01:03:06;96482.38;;;-1.54;60.81
6435;BME280;3250;42.694;23.278;2023-02-11T01:05:32;96489.69;;;-1.60;60.69
6435;BME280;3250;42.694;23.278;2023-02-11T01:07:57;96456.53;;;-1.80;60.98
6435;BME280;3250;42.694;23.278;2023-02-11T01:10:23;96482.41;;;-1.68;61.29
6435;BME280;3250;42.694;23.278;2023-02-11T01:12:49;96464.94;;;-1.77;61.71
6435;BME280;3250;42.694;23.278;2023-02-11T01:15:15;96488.25;;;-1.78;61.86
6435;BME280;3250;42.694;23.278;2023-02-11T01:17:41;96486.50;;;-1.78;61.76
6435;BME280;3250;42.694;23.278;2023-02-11T01:20:10;96474.81;;;-1.83;61.59
6435;BME280;3250;42.694;23.278;2023-02-11T01:22:36;96494.78;;;-1.87;61.73
6435;BME280;3250;42.694;23.278;2023-02-11T01:25:05;96489.38;;;-1.82;61.90
6435;BME280;3250;42.694;23.278;2023-02-11T01:27:30;96468.56;;;-1.94;61.57
6435;BME280;3250;42.694;23.278;2023-02-11T01:29:55;96486.44;;;-1.91;62.37
6435;BME280;3250;42.694;23.278;2023-02-11T01:32:21;96480.81;;;-1.97;61.83
6435;BME280;3250;42.694;23.278;2023-02-11T01:34:46;96474.47;;;-1.92;61.66
6435;BME280;3250;42.694;23.278;2023-02-11T01:37:12;96478.78;;;-1.92;61.80
6435;BME280;3250;42.694;23.278;2023-02-11T01:39:37;96442.69;;;-2.20;62.23
6435;BME280;3250;42.694;23.278;2023-02-11T01:42:02;96478.31;;;-1.99;61.78
6435;BME280;3250;42.694;23.278;2023-02-11T01:44:32;96473.16;;;-1.99;62.07
6435;BME280;3250;42.694;23.278;2023-02-11T01:46:58;96471.31;;;-1.97;61.73
6435;BME280;3250;42.694;23.278;2023-02-11T01:49:30;96469.03;;;-2.01;62.13
6435;BME280;3250;42.694;23.278;2023-02-11T01:52:06;96471.53;;;-2.00;62.12
6435;BME280;3250;42.694;23.278;2023-02-11T01:54:40;96469.66;;;-1.98;61.86
6435;BME280;3250;42.694;23.278;2023-02-11T01:57:28;96464.50;;;-1.98;61.98
6435;BME280;3250;42.694;23.278;2023-02-11T02:00:25;96466.53;;;-2.03;61.63
6435;BME280;3250;42.694;23.278;2023-02-11T02:03:09;96460.72;;;-2.06;61.49
6435;BME280;3250;42.694;23.278;2023-02-11T02:05:54;96466.94;;;-2.09;62.15
6435;BME280;3250;42.694;23.278;2023-02-11T02:08:44;96472.09;;;-2.09;61.77
6435;BME280;3250;42.694;23.278;2023-02-11T02:11:11;96468.09;;;-2.14;61.50
6435;BME280;3250;42.694;23.278;2023-02-11T02:13:37;96472.34;;;-2.13;61.56
6435;BME280;3250;42.694;23.278;2023-02-11T02:16:11;96470.41;;;-2.24;61.91
6435;BME280;3250;42.694;23.278;2023-02-11T02:38:47;96466.47;;;-2.44;62.83
6435;BME280;3250;42.694;23.278;2023-02-11T02:43:25;96460.84;;;-2.64;63.15
6435;BME280;3250;42.694;23.278;2023-02-11T02:45:51;96457.88;;;-2.87;63.13
6435;BME280;3250;42.694;23.278;2023-02-11T02:48:31;96462.81;;;-2.84;64.07
6435;BME280;3250;42.694;23.278;2023-02-11T03:02:25;96465.31;;;-2.68;63.19
6435;BME280;3250;42.694;23.278;2023-02-11T03:04:56;96446.66;;;-2.72;63.43
6435;BME280;3250;42.694;23.278;2023-02-11T03:07:36;96432.13;;;-2.87;63.15
6435;BME280;3250;42.694;23.278;2023-02-11T03:10:12;96468.19;;;-2.58;63.04
6435;BME280;3250;42.694;23.278;2023-02-11T03:12:41;96461.59;;;-2.62;62.57
6435;BME280;3250;42.694;23.278;2023-02-11T03:15:09;96465.53;;;-2.71;62.61
6435;BME280;3250;42.694;23.278;2023-02-11T03:17:38;96466.91;;;-2.66;62.52
6435;BME280;3250;42.694;23.278;2023-02-11T03:20:05;96466.91;;;-2.66;62.81
6435;BME280;3250;42.694;23.278;2023-02-11T03:22:40;96465.44;;;-2.70;62.75
6435;BME280;3250;42.694;23.278;2023-02-11T03:25:07;96466.06;;;-2.80;62.83
6435;BME280;3250;42.694;23.278;2023-02-11T03:27:46;96464.69;;;-2.86;63.03
6435;BME280;3250;42.694;23.278;2023-02-11T03:30:26;96448.09;;;-2.96;63.25
6435;BME280;3250;42.694;23.278;2023-02-11T03:32:56;96461.91;;;-2.83;63.47
6435;BME280;3250;42.694;23.278;2023-02-11T03:35:35;96466.97;;;-2.81;63.06
6435;BME280;3250;42.694;23.278;2023-02-11T03:38:12;96463.56;;;-2.82;63.15
6435;BME280;3250;42.694;23.278;2023-02-11T03:40:42;96457.69;;;-2.84;63.62
6435;BME280;3250;42.694;23.278;2023-02-11T03:43:27;96462.50;;;-2.78;62.85
6435;BME280;3250;42.694;23.278;2023-02-11T03:45:55;96459.53;;;-2.86;62.81
6435;BME280;3250;42.694;23.278;2023-02-11T03:48:25;96451.41;;;-2.94;62.92
6435;BME280;3250;42.694;23.278;2023-02-11T03:50:53;96450.41;;;-2.91;63.39
6435;BME280;3250;42.694;23.278;2023-02-11T03:53:21;96464.38;;;-2.95;63.54
6435;BME280;3250;42.694;23.278;2023-02-11T03:55:49;96455.44;;;-3.04;64.04
6435;BME280;3250;42.694;23.278;2023-02-11T03:58:15;96444.19;;;-3.17;64.28
6435;BME280;3250;42.694;23.278;2023-02-11T04:00:42;96466.56;;;-3.03;63.61
6435;BME280;3250;42.694;23.278;2023-02-11T04:03:08;96462.25;;;-3.03;63.64
6435;BME280;3250;42.694;23.278;2023-02-11T04:05:34;96468.88;;;-2.99;63.79
6435;BME280;3250;42.694;23.278;2023-02-11T04:07:59;96455.63;;;-3.07;63.84
6435;BME280;3250;42.694;23.278;2023-02-11T04:10:25;96461.44;;;-3.03;64.12
6435;BME280;3250;42.694;23.278;2023-02-11T04:12:50;96453.72;;;-3.19;64.12
6435;BME280;3250;42.694;23.278;2023-02-11T04:15:16;96463.34;;;-3.07;64.03
6435;BME280;3250;42.694;23.278;2023-02-11T04:17:42;96460.84;;;-3.09;63.87
6435;BME280;3250;42.694;23.278;2023-02-11T04:20:08;96454.03;;;-3.10;64.08
6435;BME280;3250;42.694;23.278;2023-02-11T04:22:33;96455.78;;;-3.10;64.02
6435;BME280;3250;42.694;23.278;2023-02-11T04:24:59;96461.84;;;-3.11;63.81
6435;BME280;3250;42.694;23.278;2023-02-11T04:27:24;96462.19;;;-3.17;63.90
6435;BME280;3250;42.694;23.278;2023-02-11T04:29:49;96455.69;;;-3.09;64.25
6435;BME280;3250;42.694;23.278;2023-02-11T04:32:15;96451.16;;;-3.19;64.64
6435;BME280;3250;42.694;23.278;2023-02-11T04:34:40;96452.81;;;-3.18;64.63
6435;BME280;3250;42.694;23.278;2023-02-11T04:37:06;96440.81;;;-3.33;64.46
6435;BME280;3250;42.694;23.278;2023-02-11T04:39:32;96461.28;;;-3.16;64.76
6435;BME280;3250;42.694;23.278;2023-02-11T04:41:58;96445.38;;;-3.23;64.51
6435;BME280;3250;42.694;23.278;2023-02-11T04:44:23;96448.69;;;-3.21;64.44
6435;BME280;3250;42.694;23.278;2023-02-11T04:46:48;96453.47;;;-3.15;64.56
6435;BME280;3250;42.694;23.278;2023-02-11T04:49:15;96443.44;;;-3.19;64.61
6435;BME280;3250;42.694;23.278;2023-02-11T04:51:41;96436.53;;;-3.19;64.66
6435;BME280;3250;42.694;23.278;2023-02-11T04:54:07;96451.66;;;-3.13;64.60
6435;BME280;3250;42.694;23.278;2023-02-11T04:56:32;96437.88;;;-3.27;64.87
6435;BME280;3250;42.694;23.278;2023-02-11T04:58:58;96447.88;;;-3.21;64.32
6435;BME280;3250;42.694;23.278;2023-02-11T05:01:23;96426.97;;;-3.31;64.53
6435;BME280;3250;42.694;23.278;2023-02-11T05:03:48;96447.94;;;-3.23;64.38
6435;BME280;3250;42.694;23.278;2023-02-11T05:06:15;96443.25;;;-3.16;64.34
6435;BME280;3250;42.694;23.278;2023-02-11T05:08:41;96440.69;;;-3.16;64.74
6435;BME280;3250;42.694;23.278;2023-02-11T05:11:07;96430.56;;;-3.19;63.93
6435;BME280;3250;42.694;23.278;2023-02-11T05:13:32;96392.44;;;-3.43;63.81
6435;BME280;3250;42.694;23.278;2023-02-11T05:15:58;96432.06;;;-3.15;64.27
6435;BME280;3250;42.694;23.278;2023-02-11T05:18:23;96438.78;;;-3.13;63.66
6435;BME280;3250;42.694;23.278;2023-02-11T05:20:48;96439.03;;;-3.17;63.95
6435;BME280;3250;42.694;23.278;2023-02-11T05:23:14;96437.13;;;-3.14;63.62
6435;BME280;3250;42.694;23.278;2023-02-11T05:25:39;96436.91;;;-3.11;63.59
6435;BME280;3250;42.694;23.278;2023-02-11T05:28:04;96439.50;;;-3.11;63.51
6435;BME280;3250;42.694;23.278;2023-02-11T05:30:30;96427.38;;;-3.09;63.63
6435;BME280;3250;42.694;23.278;2023-02-11T05:32:55;96443.09;;;-3.13;63.37
6435;BME280;3250;42.694;23.278;2023-02-11T05:35:21;96435.00;;;-3.21;63.54
6435;BME280;3250;42.694;23.278;2023-02-11T05:37:46;96428.19;;;-3.22;63.57
6435;BME280;3250;42.694;23.278;2023-02-11T05:40:12;96435.06;;;-3.23;63.54
6435;BME280;3250;42.694;23.278;2023-02-11T05:42:37;96437.38;;;-3.18;63.25
6435;BME280;3250;42.694;23.278;2023-02-11T05:45:03;96438.13;;;-3.16;63.55
6435;BME280;3250;42.694;23.278;2023-02-11T05:47:29;96437.94;;;-3.13;63.59
6435;BME280;3250;42.694;23.278;2023-02-11T05:49:54;96441.00;;;-3.07;63.29
6435;BME280;3250;42.694;23.278;2023-02-11T05:52:20;96449.19;;;-3.00;63.32
6435;BME280;3250;42.694;23.278;2023-02-11T05:54:46;96435.03;;;-2.93;63.25
6435;BME280;3250;42.694;23.278;2023-02-11T05:57:11;96435.59;;;-2.74;63.08
6435;BME280;3250;42.694;23.278;2023-02-11T05:59:37;96439.88;;;-2.44;62.05
6435;BME280;3250;42.694;23.278;2023-02-11T06:02:03;96442.41;;;-2.02;60.76
6435;BME280;3250;42.694;23.278;2023-02-11T06:04:29;96452.66;;;-1.73;59.15
6435;BME280;3250;42.694;23.278;2023-02-11T06:06:54;96444.94;;;-1.73;58.30
6435;BME280;3250;42.694;23.278;2023-02-11T06:09:19;96448.63;;;-1.50;59.71
6435;BME280;3250;42.694;23.278;2023-02-11T06:11:45;96452.91;;;-0.97;58.05
6435;BME280;3250;42.694;23.278;2023-02-11T06:14:10;96459.53;;;-0.30;56.77
6435;BME280;3250;42.694;23.278;2023-02-11T06:16:36;96459.19;;;0.36;54.05
6435;BME280;3250;42.694;23.278;2023-02-11T06:19:02;96433.47;;;0.70;52.67
6435;BME280;3250;42.694;23.278;2023-02-11T06:21:27;96439.38;;;1.07;51.60
6435;BME280;3250;42.694;23.278;2023-02-11T06:23:53;96459.97;;;1.43;50.66
6435;BME280;3250;42.694;23.278;2023-02-11T06:26:20;96453.53;;;1.82;48.91
6435;BME280;3250;42.694;23.278;2023-02-11T06:28:46;96464.72;;;2.16;48.31
6435;BME280;3250;42.694;23.278;2023-02-11T06:31:13;96463.97;;;2.59;47.05
6435;BME280;3250;42.694;23.278;2023-02-11T06:33:38;96447.13;;;2.85;46.19
6435;BME280;3250;42.694;23.278;2023-02-11T06:36:11;96450.94;;;3.02;45.71
6435;BME280;3250;42.694;23.278;2023-02-11T06:38:37;96472.03;;;3.20;45.55
6435;BME280;3250;42.694;23.278;2023-02-11T06:41:03;96474.94;;;3.47;45.06
6435;BME280;3250;42.694;23.278;2023-02-11T06:43:28;96466.25;;;3.78;44.25
6435;BME280;3250;42.694;23.278;2023-02-11T06:45:54;96460.44;;;3.96;43.74
6435;BME280;3250;42.694;23.278;2023-02-11T06:48:20;96417.25;;;4.03;41.75
6435;BME280;3250;42.694;23.278;2023-02-11T06:50:46;96477.03;;;4.94;40.51
6435;BME280;3250;42.694;23.278;2023-02-11T06:53:11;96455.59;;;5.39;39.74
6435;BME280;3250;42.694;23.278;2023-02-11T06:55:37;96471.31;;;6.04;38.95
6435;BME280;3250;42.694;23.278;2023-02-11T06:58:02;96463.13;;;6.17;38.00
6435;BME280;3250;42.694;23.278;2023-02-11T07:00:27;96469.72;;;6.21;37.73
6435;BME280;3250;42.694;23.278;2023-02-11T07:02:53;96468.94;;;6.48;37.09
6435;BME280;3250;42.694;23.278;2023-02-11T07:05:18;96474.63;;;7.42;36.12
6435;BME280;3250;42.694;23.278;2023-02-11T07:07:44;96471.91;;;8.55;34.13
6435;BME280;3250;42.694;23.278;2023-02-11T07:10:09;96472.09;;;9.52;32.33
6435;BME280;3250;42.694;23.278;2023-02-11T07:12:35;96453.13;;;10.21;30.79
6435;BME280;3250;42.694;23.278;2023-02-11T07:15:00;96460.34;;;11.51;29.59
6435;BME280;3250;42.694;23.278;2023-02-11T07:17:26;96456.63;;;13.15;27.25
6435;BME280;3250;42.694;23.278;2023-02-11T07:19:52;96455.41;;;14.65;25.50
6435;BME280;3250;42.694;23.278;2023-02-11T07:22:17;96453.56;;;15.14;24.24
6435;BME280;3250;42.694;23.278;2023-02-11T07:24:43;96452.72;;;15.80;23.64
6435;BME280;3250;42.694;23.278;2023-02-11T07:27:08;96456.31;;;16.65;22.91
6435;BME280;3250;42.694;23.278;2023-02-11T07:29:34;96445.53;;;17.43;22.24
6435;BME280;3250;42.694;23.278;2023-02-11T07:31:59;96440.13;;;18.12;21.55
6435;BME280;3250;42.694;23.278;2023-02-11T07:34:24;96434.22;;;18.71;20.83
6435;BME280;3250;42.694;23.278;2023-02-11T07:36:50;96434.59;;;19.23;20.17
6435;BME280;3250;42.694;23.278;2023-02-11T07:39:15;96436.97;;;19.01;20.07
6435;BME280;3250;42.694;23.278;2023-02-11T07:41:41;96430.81;;;19.31;19.68
6435;BME280;3250;42.694;23.278;2023-02-11T07:44:09;96425.25;;;19.62;19.73
6435;BME280;3250;42.694;23.278;2023-02-11T07:46:34;96428.41;;;19.41;19.95
6435;BME280;3250;42.694;23.278;2023-02-11T07:49:00;96418.34;;;18.95;20.33
6435;BME280;3250;42.694;23.278;2023-02-11T07:51:29;96418.41;;;18.33;20.76
6435;BME280;3250;42.694;23.278;2023-02-11T07:53:57;96419.97;;;17.35;21.89
6435;BME280;3250;42.694;23.278;2023-02-11T07:56:23;96425.97;;;16.79;22.67
6435;BME280;3250;42.694;23.278;2023-02-11T07:58:49;96420.44;;;15.97;23.22
6435;BME280;3250;42.694;23.278;2023-02-11T08:01:20;96424.44;;;15.33;23.85
6435;BME280;3250;42.694;23.278;2023-02-11T08:03:51;96409.06;;;14.55;24.42
6435;BME280;3250;42.694;23.278;2023-02-11T08:06:18;96384.81;;;13.61;26.16
6435;BME280;3250;42.694;23.278;2023-02-11T08:08:46;96404.31;;;13.32;26.26
6435;BME280;3250;42.694;23.278;2023-02-11T08:11:16;96411.47;;;12.96;27.06
6435;BME280;3250;42.694;23.278;2023-02-11T08:13:43;96414.97;;;12.67;27.35
6435;BME280;3250;42.694;23.278;2023-02-11T08:16:17;96413.72;;;12.48;28.24
6435;BME280;3250;42.694;23.278;2023-02-11T08:18:42;96397.91;;;12.19;28.69
6435;BME280;3250;42.694;23.278;2023-02-11T08:21:09;96414.38;;;12.06;29.28
6435;BME280;3250;42.694;23.278;2023-02-11T08:23:36;96405.78;;;11.52;29.91
6435;BME280;3250;42.694;23.278;2023-02-11T08:26:03;96409.56;;;11.12;30.64
6435;BME280;3250;42.694;23.278;2023-02-11T08:28:30;96416.13;;;10.62;31.21
6435;BME280;3250;42.694;23.278;2023-02-11T08:30:56;96407.56;;;10.21;32.09
6435;BME280;3250;42.694;23.278;2023-02-11T08:33:22;96406.00;;;9.79;32.70
6435;BME280;3250;42.694;23.278;2023-02-11T08:35:47;96394.56;;;9.48;33.06
6435;BME280;3250;42.694;23.278;2023-02-11T08:38:13;96408.53;;;9.49;33.50
6435;BME280;3250;42.694;23.278;2023-02-11T08:40:38;96403.59;;;9.37;33.88
6435;BME280;3250;42.694;23.278;2023-02-11T08:43:05;96412.63;;;9.27;33.70
6435;BME280;3250;42.694;23.278;2023-02-11T08:45:30;96403.75;;;9.20;33.65
6435;BME280;3250;42.694;23.278;2023-02-11T08:47:56;96404.25;;;8.99;34.08
6435;BME280;3250;42.694;23.278;2023-02-11T08:50:22;96407.34;;;8.94;34.40
6435;BME280;3250;42.694;23.278;2023-02-11T08:52:47;96402.59;;;8.82;35.12
6435;BME280;3250;42.694;23.278;2023-02-11T08:55:12;96400.28;;;8.95;34.91
6435;BME280;3250;42.694;23.278;2023-02-11T08:57:38;96400.28;;;8.95;34.70
6435;BME280;3250;42.694;23.278;2023-02-11T09:00:04;96406.53;;;8.94;34.59
6435;BME280;3250;42.694;23.278;2023-02-11T09:02:29;96407.50;;;8.93;34.04
6435;BME280;3250;42.694;23.278;2023-02-11T09:04:55;96388.81;;;8.88;34.12
6435;BME280;3250;42.694;23.278;2023-02-11T09:07:20;96398.81;;;9.00;33.34
6435;BME280;3250;42.694;23.278;2023-02-11T09:09:45;96395.22;;;9.01;33.92
6435;BME280;3250;42.694;23.278;2023-02-11T09:12:11;96394.06;;;8.96;33.70
6435;BME280;3250;42.694;23.278;2023-02-11T09:14:36;96391.91;;;8.99;33.29
6435;BME280;3250;42.694;23.278;2023-02-11T09:17:03;96393.56;;;9.00;33.10
6435;BME280;3250;42.694;23.278;2023-02-11T09:19:28;96392.88;;;8.82;34.51
6435;BME280;3250;42.694;23.278;2023-02-11T09:21:54;96378.25;;;8.63;33.73
6435;BME280;3250;42.694;23.278;2023-02-11T09:24:19;96387.44;;;8.67;34.54
6435;BME280;3250;42.694;23.278;2023-02-11T09:26:45;96385.78;;;8.66;34.27
6435;BME280;3250;42.694;23.278;2023-02-11T09:29:10;96360.00;;;8.46;34.14
6435;BME280;3250;42.694;23.278;2023-02-11T09:31:36;96372.44;;;8.36;33.50
6435;BME280;3250;42.694;23.278;2023-02-11T09:34:04;96385.81;;;8.24;34.78
6435;BME280;3250;42.694;23.278;2023-02-11T09:36:32;96381.00;;;8.04;34.96
6435;BME280;3250;42.694;23.278;2023-02-11T09:39:00;96380.47;;;8.00;34.62
6435;BME280;3250;42.694;23.278;2023-02-11T09:41:38;96374.88;;;7.95;34.12
6435;BME280;3250;42.694;23.278;2023-02-11T09:44:09;96364.41;;;7.95;34.34
6435;BME280;3250;42.694;23.278;2023-02-11T09:46:41;96337.56;;;7.67;35.26
6435;BME280;3250;42.694;23.278;2023-02-11T09:49:17;96366.53;;;7.66;34.69
6435;BME280;3250;42.694;23.278;2023-02-11T09:51:48;96359.19;;;7.69;35.15
6435;BME280;3250;42.694;23.278;2023-02-11T09:54:39;96347.56;;;7.72;35.61
6435;BME280;3250;42.694;23.278;2023-02-11T09:57:08;96342.91;;;7.57;34.50
6435;BME280;3250;42.694;23.278;2023-02-11T09:59:34;96346.88;;;7.44;35.17
6435;BME280;3250;42.694;23.278;2023-02-11T10:02:04;96344.06;;;7.37;35.35
6435;BME280;3250;42.694;23.278;2023-02-11T10:10:23;96320.63;;;7.10;35.74
6435;BME280;3250;42.694;23.278;2023-02-11T10:21:49;96300.16;;;7.05;36.07
6435;BME280;3250;42.694;23.278;2023-02-11T10:24:17;96284.25;;;6.99;35.58
6435;BME280;3250;42.694;23.278;2023-02-11T10:26:45;96279.19;;;6.79;35.92
6435;BME280;3250;42.694;23.278;2023-02-11T10:29:30;96271.84;;;6.57;36.41
6435;BME280;3250;42.694;23.278;2023-02-11T10:31:59;96264.28;;;6.36;35.90
6435;BME280;3250;42.694;23.278;2023-02-11T10:34:28;96253.91;;;6.27;36.42
6435;BME280;3250;42.694;23.278;2023-02-11T10:36:54;96247.03;;;6.26;36.94
6435;BME280;3250;42.694;23.278;2023-02-11T10:39:21;96240.06;;;6.17;37.24
6435;BME280;3250;42.694;23.278;2023-02-11T10:41:53;96240.81;;;6.09;36.71
6435;BME280;3250;42.694;23.278;2023-02-11T10:46:50;96217.22;;;6.01;37.72
6435;BME280;3250;42.694;23.278;2023-02-11T10:49:41;96228.66;;;6.00;38.06
6435;BME280;3250;42.694;23.278;2023-02-11T10:54:58;96221.50;;;6.02;37.47
6435;BME280;3250;42.694;23.278;2023-02-11T11:00:25;96205.59;;;6.13;37.10
6435;BME280;3250;42.694;23.278;2023-02-11T11:02:54;96205.59;;;6.13;38.25
6435;BME280;3250;42.694;23.278;2023-02-11T11:05:46;96169.91;;;6.04;37.37
6435;BME280;3250;42.694;23.278;2023-02-11T11:08:10;96194.22;;;6.22;37.07
6435;BME280;3250;42.694;23.278;2023-02-11T11:10:40;96193.41;;;6.22;37.00
6435;BME280;3250;42.694;23.278;2023-02-11T11:13:29;96199.75;;;6.19;37.75
6435;BME280;3250;42.694;23.278;2023-02-11T11:16:28;96189.16;;;6.21;38.30
6435;BME280;3250;42.694;23.278;2023-02-11T11:21:40;96172.94;;;5.99;37.04
6435;BME280;3250;42.694;23.278;2023-02-11T11:26:46;96183.72;;;5.96;37.72
6435;BME280;3250;42.694;23.278;2023-02-11T11:29:16;96163.06;;;5.76;38.06
6435;BME280;3250;42.694;23.278;2023-02-11T11:31:50;96177.59;;;5.88;37.94
6435;BME280;3250;42.694;23.278;2023-02-11T11:34:28;96168.50;;;5.82;37.53
6435;BME280;3250;42.694;23.278;2023-02-11T11:36:56;96152.13;;;5.62;37.90
6435;BME280;3250;42.694;23.278;2023-02-11T11:39:27;96177.75;;;5.77;38.60
6435;BME280;3250;42.694;23.278;2023-02-11T11:41:57;96167.31;;;5.77;38.19
6435;BME280;3250;42.694;23.278;2023-02-11T11:44:32;96166.72;;;5.83;37.93
6435;BME280;3250;42.694;23.278;2023-02-11T11:47:21;96171.13;;;5.82;37.12
6435;BME280;3250;42.694;23.278;2023-02-11T11:52:49;96150.16;;;5.92;36.52
6435;BME280;3250;42.694;23.278;2023-02-11T11:55:26;96152.34;;;5.96;37.05
6435;BME280;3250;42.694;23.278;2023-02-11T11:57:53;96149.63;;;5.88;37.14
6435;BME280;3250;42.694;23.278;2023-02-11T12:00:24;96146.78;;;5.82;37.51
6435;BME280;3250;42.694;23.278;2023-02-11T12:03:26;96131.91;;;5.82;38.41
6435;BME280;3250;42.694;23.278;2023-02-11T12:11:05;96127.66;;;5.81;36.99
6435;BME280;3250;42.694;23.278;2023-02-11T12:14:12;96129.03;;;5.85;36.86
6435;BME280;3250;42.694;23.278;2023-02-11T12:25:26;96101.75;;;6.05;36.34
6435;BME280;3250;42.694;23.278;2023-02-11T12:33:54;96077.59;;;5.86;35.96
6435;BME280;3250;42.694;23.278;2023-02-11T12:41:58;96078.41;;;6.04;36.91
6435;BME280;3250;42.694;23.278;2023-02-11T12:45:32;96074.81;;;6.05;37.05
6435;BME280;3250;42.694;23.278;2023-02-11T12:53:46;96029.53;;;5.79;36.83
6435;BME280;3250;42.694;23.278;2023-02-11T12:56:28;96055.38;;;6.07;37.30
6435;BME280;3250;42.694;23.278;2023-02-11T12:58:59;96060.66;;;6.16;35.89
6435;BME280;3250;42.694;23.278;2023-02-11T13:01:36;96057.09;;;6.17;36.30
6435;BME280;3250;42.694;23.278;2023-02-11T13:04:16;96056.47;;;6.23;35.38
6435;BME280;3250;42.694;23.278;2023-02-11T13:06:47;96055.66;;;6.22;35.11
6435;BME280;3250;42.694;23.278;2023-02-11T13:09:20;96046.28;;;6.12;35.15
6435;BME280;3250;42.694;23.278;2023-02-11T13:11:49;96061.81;;;6.13;35.52
6435;BME280;3250;42.694;23.278;2023-02-11T13:14:25;96058.06;;;6.16;36.42
6435;BME280;3250;42.694;23.278;2023-02-11T13:16:54;96053.31;;;6.11;35.45
6435;BME280;3250;42.694;23.278;2023-02-11T13:19:42;96044.25;;;6.05;36.23
6435;BME280;3250;42.694;23.278;2023-02-11T13:25:01;96043.22;;;5.98;36.19
6435;BME280;3250;42.694;23.278;2023-02-11T13:27:43;96040.41;;;5.92;35.61
6435;BME280;3250;42.694;23.278;2023-02-11T13:30:30;96037.72;;;5.84;36.03
6435;BME280;3250;42.694;23.278;2023-02-11T13:33:02;96038.84;;;5.81;35.84
6435;BME280;3250;42.694;23.278;2023-02-11T13:37:58;96039.97;;;5.79;35.05
6435;BME280;3250;42.694;23.278;2023-02-11T13:40:33;96040.56;;;5.73;34.59
6435;BME280;3250;42.694;23.278;2023-02-11T13:43:02;96035.75;;;5.60;35.62
6435;BME280;3250;42.694;23.278;2023-02-11T13:48:03;96034.09;;;5.59;35.31
6435;BME280;3250;42.694;23.278;2023-02-11T13:50:33;96018.22;;;5.52;35.07
6435;BME280;3250;42.694;23.278;2023-02-11T13:53:04;96021.81;;;5.51;35.38
6435;BME280;3250;42.694;23.278;2023-02-11T13:55:31;96021.88;;;5.59;35.41
6435;BME280;3250;42.694;23.278;2023-02-11T14:11:54;96014.25;;;5.48;36.03
6435;BME280;3250;42.694;23.278;2023-02-11T14:15:00;95985.25;;;5.34;36.21
6435;BME280;3250;42.694;23.278;2023-02-11T14:17:33;96014.78;;;5.52;36.99
6435;BME280;3250;42.694;23.278;2023-02-11T14:20:01;96011.72;;;5.56;36.74
6435;BME280;3250;42.694;23.278;2023-02-11T14:22:48;95999.47;;;5.57;36.46
6435;BME280;3250;42.694;23.278;2023-02-11T14:25:25;95998.66;;;5.56;36.64
6435;BME280;3250;42.694;23.278;2023-02-11T14:28:05;96000.53;;;5.46;36.97
6435;BME280;3250;42.694;23.278;2023-02-11T14:30:41;96000.16;;;5.41;37.56
6435;BME280;3250;42.694;23.278;2023-02-11T14:38:55;96001.13;;;5.22;38.59
6435;BME280;3250;42.694;23.278;2023-02-11T14:41:44;95997.50;;;5.15;38.88
6435;BME280;3250;42.694;23.278;2023-02-11T14:44:29;96007.47;;;5.20;38.42
6435;BME280;3250;42.694;23.278;2023-02-11T14:46:55;95996.38;;;5.18;38.27
6435;BME280;3250;42.694;23.278;2023-02-11T14:49:28;95988.75;;;4.89;38.30
6435;BME280;3250;42.694;23.278;2023-02-11T14:52:00;96005.81;;;4.83;38.70
6435;BME280;3250;42.694;23.278;2023-02-11T14:54:29;95989.63;;;4.80;38.87
6435;BME280;3250;42.694;23.278;2023-02-11T14:57:15;96007.16;;;4.87;39.30
6435;BME280;3250;42.694;23.278;2023-02-11T14:59:54;95994.69;;;4.64;38.54
6435;BME280;3250;42.694;23.278;2023-02-11T15:02:22;95999.22;;;4.62;38.89
6435;BME280;3250;42.694;23.278;2023-02-11T15:04:47;95995.78;;;4.61;39.40
6435;BME280;3250;42.694;23.278;2023-02-11T15:07:14;95978.94;;;4.55;39.63
6435;BME280;3250;42.694;23.278;2023-02-11T15:09:51;95984.09;;;4.65;39.91
6435;BME280;3250;42.694;23.278;2023-02-11T15:12:25;95989.00;;;4.68;39.96
6435;BME280;3250;42.694;23.278;2023-02-11T15:14:54;95988.34;;;4.66;40.29
6435;BME280;3250;42.694;23.278;2023-02-11T15:17:30;95970.44;;;4.53;39.88
6435;BME280;3250;42.694;23.278;2023-02-11T15:19:59;95979.63;;;4.58;40.14
6435;BME280;3250;42.694;23.278;2023-02-11T15:22:28;95972.69;;;4.48;40.44
6435;BME280;3250;42.694;23.278;2023-02-11T15:25:17;95968.84;;;4.43;40.69
6435;BME280;3250;42.694;23.278;2023-02-11T15:27:51;95964.38;;;4.35;40.59
6435;BME280;3250;42.694;23.278;2023-02-11T15:32:47;95977.84;;;4.31;40.68
6435;BME280;3250;42.694;23.278;2023-02-11T15:35:13;95968.97;;;4.24;41.20